createdAt,value
2023-05-05T00:00:51.771Z,3.10
2023-05-05T00:01:54.544Z,2.80
2023-05-05T00:02:56.386Z,3.05
2023-05-05T00:03:59.199Z,2.80
2023-05-05T00:05:01.033Z,2.83
2023-05-05T00:06:04.228Z,3.13
2023-05-05T00:07:05.951Z,2.83
2023-05-05T00:08:08.656Z,3.50
2023-05-05T00:09:10.410Z,3.00
2023-05-05T00:10:13.093Z,3.30
2023-05-05T00:11:16.283Z,3.22
2023-05-05T00:12:18.998Z,3.20
2023-05-05T00:13:21.450Z,3.17
2023-05-05T00:14:24.149Z,3.17
2023-05-05T00:15:27.395Z,3.20
2023-05-05T00:16:30.109Z,3.30
2023-05-05T00:17:31.836Z,3.58
2023-05-05T00:18:34.852Z,3.30
2023-05-05T00:19:37.041Z,3.65
2023-05-05T00:20:39.762Z,3.50
2023-05-05T00:21:41.428Z,3.38
2023-05-05T00:22:44.142Z,3.00
2023-05-05T00:23:45.899Z,2.90
2023-05-05T00:24:48.557Z,3.20
2023-05-05T00:25:50.313Z,2.83
2023-05-05T00:26:54.349Z,2.92
2023-05-05T00:27:56.310Z,3.00
2023-05-05T00:28:59.043Z,3.05
2023-05-05T00:30:00.765Z,3.20
2023-05-05T00:31:03.519Z,2.90
2023-05-05T00:32:05.395Z,3.05
2023-05-05T00:33:08.338Z,2.67
2023-05-05T00:34:10.090Z,3.05
2023-05-05T00:35:12.762Z,2.97
2023-05-05T00:36:14.864Z,2.85
2023-05-05T00:37:17.701Z,3.17
2023-05-05T00:38:19.433Z,3.20
2023-05-05T00:39:22.098Z,2.83
2023-05-05T00:40:25.104Z,2.72
2023-05-05T00:41:27.849Z,2.85
2023-05-05T00:42:40.200Z,2.80
2023-05-05T00:43:43.177Z,2.70
2023-05-05T00:44:44.964Z,2.95
2023-05-05T00:45:48.163Z,2.50
2023-05-05T00:46:50.068Z,3.03
2023-05-05T00:47:55.393Z,3.03
2023-05-05T00:48:57.841Z,2.50
2023-05-05T00:50:00.601Z,2.65
2023-05-05T00:51:02.361Z,2.30
2023-05-05T00:52:06.657Z,2.50
2023-05-05T00:53:08.425Z,2.50
2023-05-05T00:54:11.137Z,2.30
2023-05-05T00:55:12.846Z,2.28
2023-05-05T00:56:15.939Z,2.30
2023-05-05T00:57:18.319Z,2.40
2023-05-05T00:58:22.387Z,2.38
2023-05-05T00:59:24.226Z,2.30
2023-05-05T01:00:27.337Z,2.78
2023-05-05T01:01:29.141Z,2.30
2023-05-05T01:02:32.097Z,2.55
2023-05-05T01:03:36.661Z,2.53
2023-05-05T01:04:39.419Z,2.20
2023-05-05T01:05:48.345Z,2.58
2023-05-05T01:06:56.861Z,2.80
2023-05-05T01:08:09.848Z,2.65
2023-05-05T01:09:19.423Z,2.40
2023-05-05T01:10:26.419Z,2.60
2023-05-05T01:11:33.677Z,2.60
2023-05-05T01:12:41.718Z,2.97
2023-05-05T01:13:51.273Z,3.25
2023-05-05T01:14:59.266Z,2.95
2023-05-05T01:16:05.146Z,3.17
2023-05-05T01:17:14.832Z,2.80
2023-05-05T01:18:21.262Z,3.05
2023-05-05T01:19:35.079Z,3.03
2023-05-05T01:20:43.220Z,3.22
2023-05-05T01:21:48.622Z,3.10
2023-05-05T01:22:54.872Z,3.10
2023-05-05T01:24:26.623Z,2.85
2023-05-05T01:25:48.992Z,2.97
2023-05-05T01:27:00.854Z,3.05
2023-05-05T01:28:12.648Z,3.70
2023-05-05T01:29:33.386Z,3.15
2023-05-05T01:31:18.742Z,2.90
2023-05-05T01:32:25.503Z,2.95
2023-05-05T01:33:29.574Z,2.90
2023-05-05T01:34:35.820Z,3.15
2023-05-05T01:35:41.595Z,2.97
2023-05-05T01:36:46.074Z,3.25
2023-05-05T01:37:50.979Z,2.88
2023-05-05T01:38:58.853Z,2.63
2023-05-05T01:40:05.314Z,3.00
2023-05-05T01:41:13.103Z,3.00
2023-05-05T01:42:15.289Z,2.90
2023-05-05T01:43:20.478Z,3.22
2023-05-05T01:44:22.316Z,2.75
2023-05-05T01:45:28.781Z,3.03
2023-05-05T01:46:30.583Z,3.00
2023-05-05T01:47:35.033Z,2.92
2023-05-05T01:48:37.609Z,2.67
2023-05-05T01:49:40.830Z,3.20
2023-05-05T01:50:43.047Z,2.50
2023-05-05T01:51:47.517Z,2.72
2023-05-05T01:52:50.718Z,3.08
2023-05-05T01:53:54.278Z,3.00
2023-05-05T01:54:57.602Z,3.30
2023-05-05T01:56:00.412Z,3.25
2023-05-05T01:57:04.871Z,2.83
2023-05-05T01:58:08.550Z,2.72
2023-05-05T01:59:10.391Z,2.78
2023-05-05T02:00:14.639Z,3.00
2023-05-05T02:01:18.344Z,2.88
2023-05-05T02:02:22.567Z,3.50
2023-05-05T02:03:26.750Z,2.80
2023-05-05T02:04:31.154Z,2.92
2023-05-05T02:05:33.284Z,3.15
2023-05-05T02:06:36.473Z,3.20
2023-05-05T02:07:38.983Z,2.95
2023-05-05T02:08:43.205Z,3.08
2023-05-05T02:09:45.249Z,3.20
2023-05-05T02:10:48.883Z,3.47
2023-05-05T02:11:51.196Z,3.08
2023-05-05T02:12:54.571Z,3.17
2023-05-05T02:13:56.508Z,2.63
2023-05-05T02:15:01.395Z,3.40
2023-05-05T02:16:03.753Z,3.03
2023-05-05T02:17:06.537Z,2.70
2023-05-05T02:18:08.753Z,2.53
2023-05-05T02:19:13.338Z,2.35
2023-05-05T02:20:15.393Z,2.70
2023-05-05T02:21:18.751Z,2.88
2023-05-05T02:22:20.617Z,2.97
2023-05-05T02:23:23.437Z,3.00
2023-05-05T02:24:25.408Z,2.72
2023-05-05T02:25:32.346Z,2.58
2023-05-05T02:26:35.782Z,2.78
2023-05-05T02:27:38.783Z,2.50
2023-05-05T02:28:42.102Z,2.60
2023-05-05T02:29:49.041Z,2.58
2023-05-05T02:30:56.774Z,2.72
2023-05-05T02:32:03.278Z,2.50
2023-05-05T02:33:07.207Z,2.75
2023-05-05T02:34:11.794Z,2.65
2023-05-05T02:35:15.671Z,2.70
2023-05-05T02:36:21.521Z,2.90
2023-05-05T02:37:24.607Z,3.00
2023-05-05T02:38:29.401Z,2.90
2023-05-05T02:39:33.202Z,2.88
2023-05-05T02:40:36.460Z,2.80
2023-05-05T02:41:39.392Z,2.85
2023-05-05T02:42:44.470Z,3.25
2023-05-05T02:43:48.960Z,3.08
2023-05-05T02:44:53.061Z,3.13
2023-05-05T02:45:54.793Z,3.38
2023-05-05T02:46:57.737Z,2.83
2023-05-05T02:48:02.494Z,2.80
2023-05-05T02:49:05.232Z,2.80
2023-05-05T02:50:09.522Z,2.60
2023-05-05T02:51:12.483Z,2.60
2023-05-05T02:52:14.549Z,2.83
2023-05-05T02:53:17.440Z,2.70
2023-05-05T02:54:19.569Z,2.50
2023-05-05T02:55:22.522Z,2.63
2023-05-05T02:56:31.018Z,2.45
2023-05-05T02:57:38.848Z,2.65
2023-05-05T02:58:44.209Z,2.60
2023-05-05T02:59:51.675Z,2.90
2023-05-05T03:01:00.941Z,2.55
2023-05-05T03:02:12.362Z,2.72
2023-05-05T03:03:19.044Z,2.42
2023-05-05T03:04:28.261Z,2.55
2023-05-05T03:05:37.076Z,2.67
2023-05-05T03:06:42.388Z,2.60
2023-05-05T03:07:49.695Z,2.80
2023-05-05T03:08:57.572Z,2.50
2023-05-05T03:10:05.444Z,3.03
2023-05-05T03:11:11.255Z,3.00
2023-05-05T03:12:19.608Z,2.45
2023-05-05T03:13:24.596Z,2.72
2023-05-05T03:14:30.041Z,2.95
2023-05-05T03:15:38.393Z,2.75
2023-05-05T03:16:42.821Z,2.90
2023-05-05T03:17:44.746Z,2.97
2023-05-05T03:18:48.234Z,2.65
2023-05-05T03:19:50.995Z,3.03
2023-05-05T03:20:55.264Z,2.80
2023-05-05T03:21:57.076Z,2.65
2023-05-05T03:23:02.118Z,2.88
2023-05-05T03:24:12.576Z,2.85
2023-05-05T03:25:15.332Z,2.63
2023-05-05T03:26:17.883Z,2.72
2023-05-05T03:27:21.483Z,2.80
2023-05-05T03:28:23.552Z,2.63
2023-05-05T03:29:26.792Z,2.50
2023-05-05T03:30:28.536Z,2.63
2023-05-05T03:31:31.383Z,3.15
2023-05-05T03:32:33.200Z,2.90
2023-05-05T03:33:35.929Z,2.80
2023-05-05T03:34:37.842Z,2.72
2023-05-05T03:35:40.741Z,3.00
2023-05-05T03:36:44.881Z,2.80
2023-05-05T03:37:46.640Z,3.00
2023-05-05T03:38:49.423Z,2.60
2023-05-05T03:39:51.259Z,2.70
2023-05-05T03:40:53.953Z,2.47
2023-05-05T03:41:55.716Z,2.88
2023-05-05T03:42:58.502Z,2.90
2023-05-05T03:44:00.327Z,2.70
2023-05-05T03:45:03.162Z,2.72
2023-05-05T03:46:05.411Z,2.80
2023-05-05T03:47:08.119Z,2.63
2023-05-05T03:48:10.043Z,2.63
2023-05-05T03:49:12.787Z,2.80
2023-05-05T03:50:14.536Z,2.80
2023-05-05T03:51:17.254Z,2.80
2023-05-05T03:52:20.373Z,3.08
2023-05-05T03:53:23.061Z,2.58
2023-05-05T03:54:24.850Z,2.70
2023-05-05T03:55:37.024Z,2.63
2023-05-05T03:56:38.813Z,2.72
2023-05-05T03:57:41.504Z,2.60
2023-05-05T03:58:43.206Z,2.90
2023-05-05T03:59:45.959Z,3.00
2023-05-05T04:00:47.684Z,2.95
2023-05-05T04:01:50.408Z,2.95
2023-05-05T04:02:52.198Z,2.90
2023-05-05T04:03:55.234Z,2.90
2023-05-05T04:04:57.134Z,2.78
2023-05-05T04:06:01.737Z,2.58
2023-05-05T04:07:03.428Z,2.40
2023-05-05T04:08:07.621Z,2.55
2023-05-05T04:09:09.327Z,2.80
2023-05-05T04:10:12.296Z,2.60
2023-05-05T04:11:13.976Z,3.00
2023-05-05T04:12:16.672Z,2.50
2023-05-05T04:13:18.551Z,2.33
2023-05-05T04:14:21.417Z,2.42
2023-05-05T04:15:23.142Z,2.80
2023-05-05T04:16:26.147Z,2.65
2023-05-05T04:17:27.994Z,2.95
2023-05-05T04:18:31.276Z,3.13
2023-05-05T04:19:33.257Z,2.58
2023-05-05T04:20:36.286Z,2.60
2023-05-05T04:21:38.044Z,2.85
2023-05-05T04:22:40.841Z,2.90
2023-05-05T04:23:43.974Z,2.83
2023-05-05T04:24:47.167Z,3.00
2023-05-05T04:25:48.884Z,3.20
2023-05-05T04:26:51.867Z,3.42
2023-05-05T04:27:53.560Z,2.85
2023-05-05T04:28:56.694Z,3.28
2023-05-05T04:29:58.434Z,2.78
2023-05-05T04:31:02.614Z,3.13
2023-05-05T04:32:04.693Z,3.15
2023-05-05T04:33:07.407Z,3.10
2023-05-05T04:34:09.159Z,3.42
2023-05-05T04:35:12.002Z,3.20
2023-05-05T04:36:13.776Z,2.95
2023-05-05T04:37:16.479Z,3.30
2023-05-05T04:38:19.418Z,3.60
2023-05-05T04:39:23.585Z,3.53
2023-05-05T04:40:26.226Z,3.35
2023-05-05T04:41:30.103Z,3.58
2023-05-05T04:42:32.512Z,3.42
2023-05-05T04:43:35.217Z,3.08
2023-05-05T04:44:36.963Z,3.63
2023-05-05T04:45:39.647Z,3.58
2023-05-05T04:46:41.456Z,3.55
2023-05-05T04:47:44.205Z,3.50
2023-05-05T04:48:45.889Z,3.30
2023-05-05T04:49:49.676Z,3.47
2023-05-05T04:50:51.418Z,3.63
2023-05-05T04:51:54.126Z,3.85
2023-05-05T04:52:56.250Z,3.75
2023-05-05T04:53:59.041Z,3.42
2023-05-05T04:55:02.206Z,3.53
2023-05-05T04:56:04.948Z,3.28
2023-05-05T04:57:07.381Z,3.97
2023-05-05T04:58:10.143Z,3.80
2023-05-05T04:59:11.958Z,3.80
2023-05-05T05:00:15.392Z,3.72
2023-05-05T05:01:17.161Z,3.53
2023-05-05T05:02:19.973Z,3.42
2023-05-05T05:03:21.815Z,3.00
2023-05-05T05:04:25.918Z,3.05
2023-05-05T05:05:27.629Z,3.10
2023-05-05T05:06:30.404Z,3.13
2023-05-05T05:07:32.177Z,3.30
2023-05-05T05:08:34.880Z,3.88
2023-05-05T05:09:37.000Z,3.50
2023-05-05T05:10:41.464Z,3.22
2023-05-05T05:11:43.165Z,3.40
2023-05-05T05:12:45.862Z,3.40
2023-05-05T05:13:47.602Z,3.00
2023-05-05T05:14:50.375Z,3.10
2023-05-05T05:15:52.397Z,3.10
2023-05-05T05:16:55.177Z,2.67
2023-05-05T05:17:57.027Z,3.22
2023-05-05T05:19:01.456Z,3.20
2023-05-05T05:20:04.944Z,3.60
2023-05-05T05:21:07.909Z,3.20
2023-05-05T05:22:09.632Z,3.38
2023-05-05T05:23:12.311Z,3.10
2023-05-05T05:24:14.053Z,3.50
2023-05-05T05:25:17.024Z,3.38
2023-05-05T05:26:20.146Z,3.50
2023-05-05T05:27:22.856Z,3.95
2023-05-05T05:28:24.600Z,3.67
2023-05-05T05:29:27.440Z,3.42
2023-05-05T05:30:29.270Z,3.55
2023-05-05T05:31:32.091Z,3.85
2023-05-05T05:32:33.797Z,3.88
2023-05-05T05:33:36.533Z,3.67
2023-05-05T05:34:38.338Z,3.40
2023-05-05T05:35:41.108Z,3.40
2023-05-05T05:36:42.770Z,3.90
2023-05-05T05:37:45.930Z,3.78
2023-05-05T05:38:47.621Z,4.35
2023-05-05T05:39:52.652Z,4.00
2023-05-05T05:40:54.569Z,3.67
2023-05-05T05:41:58.748Z,3.88
2023-05-05T05:43:00.473Z,4.10
2023-05-05T05:44:03.392Z,4.00
2023-05-05T05:45:06.287Z,3.78
2023-05-05T05:46:09.453Z,4.38
2023-05-05T05:47:11.229Z,4.18
2023-05-05T05:48:13.922Z,4.05
2023-05-05T05:49:16.343Z,4.80
2023-05-05T05:50:19.284Z,3.97
2023-05-05T05:51:21.017Z,4.22
2023-05-05T05:52:23.662Z,4.38
2023-05-05T05:53:25.462Z,3.80
2023-05-05T05:54:35.452Z,4.60
2023-05-05T05:55:37.134Z,3.80
2023-05-05T05:56:39.873Z,3.70
2023-05-05T05:57:43.009Z,4.28
2023-05-05T05:58:45.821Z,4.70
2023-05-05T05:59:47.554Z,4.45
2023-05-05T06:00:50.228Z,3.75
2023-05-05T06:01:51.919Z,4.30
2023-05-05T06:02:54.675Z,4.07
2023-05-05T06:03:56.647Z,3.97
2023-05-05T06:04:59.464Z,4.10
2023-05-05T06:06:01.211Z,4.30
2023-05-05T06:07:03.903Z,4.72
2023-05-05T06:08:05.628Z,4.60
2023-05-05T06:09:08.384Z,3.97
2023-05-05T06:10:25.798Z,4.22
2023-05-05T06:11:29.878Z,3.70
2023-05-05T06:12:31.729Z,4.15
2023-05-05T06:13:35.806Z,3.95
2023-05-05T06:14:39.598Z,3.88
2023-05-05T06:15:42.497Z,4.05
2023-05-05T06:16:44.312Z,3.90
2023-05-05T06:17:46.992Z,4.25
2023-05-05T06:18:52.869Z,4.10
2023-05-05T06:19:54.670Z,4.18
2023-05-05T06:20:57.373Z,4.18
2023-05-05T06:21:59.055Z,3.83
2023-05-05T06:23:01.736Z,3.70
2023-05-05T06:24:03.873Z,4.40
2023-05-05T06:25:07.448Z,3.88
2023-05-05T06:26:09.325Z,4.13
2023-05-05T06:27:12.080Z,3.63
2023-05-05T06:28:13.826Z,3.90
2023-05-05T06:29:17.923Z,4.03
2023-05-05T06:30:21.435Z,4.53
2023-05-05T06:31:24.241Z,3.83
2023-05-05T06:32:26.160Z,3.85
2023-05-05T06:33:31.173Z,3.97
2023-05-05T06:34:32.902Z,3.40
2023-05-05T06:35:35.562Z,3.80
2023-05-05T06:36:37.286Z,4.05
2023-05-05T06:37:40.079Z,3.60
2023-05-05T06:38:43.067Z,3.67
2023-05-05T06:39:44.741Z,4.05
2023-05-05T06:40:48.887Z,4.35
2023-05-05T06:41:50.719Z,3.92
2023-05-05T06:42:53.386Z,3.67
2023-05-05T06:43:55.113Z,3.85
2023-05-05T06:44:59.185Z,4.00
2023-05-05T06:46:00.919Z,3.95
2023-05-05T06:47:04.571Z,4.00
2023-05-05T06:48:07.455Z,3.55
2023-05-05T06:49:10.136Z,4.10
2023-05-05T06:50:12.080Z,3.78
2023-05-05T06:51:15.711Z,3.60
2023-05-05T06:52:17.405Z,3.45
2023-05-05T06:53:20.059Z,3.42
2023-05-05T06:54:21.831Z,3.50
2023-05-05T06:55:24.985Z,3.60
2023-05-05T06:56:26.696Z,3.38
2023-05-05T06:57:29.406Z,3.58
2023-05-05T06:58:32.038Z,3.53
2023-05-05T06:59:33.794Z,6.18
2023-05-05T07:00:38.173Z,4.05
2023-05-05T07:01:40.892Z,3.72
2023-05-05T07:02:42.645Z,4.25
2023-05-05T07:03:45.834Z,3.67
2023-05-05T07:04:48.554Z,4.35
2023-05-05T07:05:50.261Z,3.60
2023-05-05T07:06:52.977Z,3.35
2023-05-05T07:07:56.624Z,3.65
2023-05-05T07:08:58.376Z,3.78
2023-05-05T07:10:01.168Z,3.72
2023-05-05T07:11:03.942Z,3.78
2023-05-05T07:12:07.066Z,3.47
2023-05-05T07:13:09.862Z,3.50
2023-05-05T07:14:11.579Z,3.78
2023-05-05T07:15:26.788Z,3.78
2023-05-05T07:16:34.695Z,4.88
2023-05-05T07:17:36.551Z,3.60
2023-05-05T07:18:39.224Z,3.20
2023-05-05T07:19:41.233Z,2.85
2023-05-05T07:20:44.986Z,3.30
2023-05-05T07:21:48.517Z,3.15
2023-05-05T07:22:50.351Z,3.15
2023-05-05T07:23:53.459Z,3.15
2023-05-05T07:24:55.994Z,3.40
2023-05-05T07:25:58.738Z,3.25
2023-05-05T07:27:01.343Z,3.38
2023-05-05T07:28:04.308Z,3.30
2023-05-05T07:29:07.161Z,3.60
2023-05-05T07:30:13.105Z,3.40
2023-05-05T07:31:19.307Z,3.30
2023-05-05T07:32:22.595Z,3.22
2023-05-05T07:33:25.559Z,3.17
2023-05-05T07:34:27.850Z,2.90
2023-05-05T07:35:30.722Z,3.70
2023-05-05T07:36:32.686Z,3.22
2023-05-05T07:37:35.420Z,3.22
2023-05-05T07:38:37.146Z,3.72
2023-05-05T07:39:39.828Z,3.75
2023-05-05T07:40:41.564Z,3.08
2023-05-05T07:41:44.312Z,3.63
2023-05-05T07:42:47.395Z,3.65
2023-05-05T07:43:50.112Z,3.35
2023-05-05T07:44:52.802Z,3.08
2023-05-05T07:45:55.746Z,2.90
2023-05-05T07:46:57.471Z,3.22
2023-05-05T07:48:01.730Z,3.33
2023-05-05T07:49:03.542Z,3.28
2023-05-05T07:50:07.415Z,3.47
2023-05-05T07:51:09.426Z,3.25
2023-05-05T07:52:12.269Z,3.33
2023-05-05T07:53:15.165Z,3.28
2023-05-05T07:54:18.636Z,3.40
2023-05-05T07:55:21.506Z,3.28
2023-05-05T07:56:23.324Z,3.10
2023-05-05T07:57:26.053Z,3.20
2023-05-05T07:58:27.810Z,2.78
2023-05-05T07:59:31.064Z,3.10
2023-05-05T08:00:33.799Z,3.10
2023-05-05T08:01:35.603Z,3.50
2023-05-05T08:02:38.435Z,3.60
2023-05-05T08:03:42.772Z,3.38
2023-05-05T08:04:44.644Z,2.78
2023-05-05T08:05:47.863Z,3.47
2023-05-05T08:06:51.657Z,3.40
2023-05-05T08:07:53.377Z,2.85
2023-05-05T08:08:56.391Z,3.05
2023-05-05T08:09:58.522Z,3.40
2023-05-05T08:11:01.931Z,3.28
2023-05-05T08:12:04.389Z,3.30
2023-05-05T08:13:07.171Z,3.15
2023-05-05T08:14:08.922Z,3.33
2023-05-05T08:15:12.238Z,3.83
2023-05-05T08:16:14.097Z,3.30
2023-05-05T08:17:19.548Z,3.33
2023-05-05T08:18:22.205Z,3.15
2023-05-05T08:19:29.384Z,3.33
2023-05-05T08:20:32.631Z,3.83
2023-05-05T08:21:34.347Z,2.90
2023-05-05T08:22:37.013Z,3.70
2023-05-05T08:23:39.452Z,3.60
2023-05-05T08:24:42.123Z,3.45
2023-05-05T08:25:43.907Z,3.38
2023-05-05T08:26:46.633Z,3.45
2023-05-05T08:27:48.324Z,3.78
2023-05-05T08:28:55.040Z,3.63
2023-05-05T08:29:57.653Z,3.65
2023-05-05T08:31:00.448Z,3.15
2023-05-05T08:32:03.109Z,3.45
2023-05-05T08:33:04.801Z,3.05
2023-05-05T08:34:07.763Z,3.40
2023-05-05T08:35:12.129Z,3.83
2023-05-05T08:36:15.441Z,3.65
2023-05-05T08:37:18.850Z,3.92
2023-05-05T08:38:20.662Z,3.28
2023-05-05T08:39:23.469Z,3.30
2023-05-05T08:40:29.910Z,3.65
2023-05-05T08:41:32.615Z,4.00
2023-05-05T08:42:38.665Z,3.70
2023-05-05T08:43:47.245Z,3.60
2023-05-05T08:44:48.987Z,3.72
2023-05-05T08:45:52.364Z,3.80
2023-05-05T08:46:55.473Z,3.35
2023-05-05T08:47:57.701Z,3.67
2023-05-05T08:49:01.046Z,4.10
2023-05-05T08:50:05.602Z,3.65
2023-05-05T08:51:10.683Z,3.40
2023-05-05T08:52:14.152Z,3.40
2023-05-05T08:53:18.080Z,4.00
2023-05-05T08:54:20.591Z,3.80
2023-05-05T08:55:25.512Z,3.78
2023-05-05T08:56:32.978Z,3.83
2023-05-05T08:57:42.392Z,3.22
2023-05-05T08:58:46.455Z,3.38
2023-05-05T08:59:49.042Z,3.40
2023-05-05T09:00:52.070Z,3.53
2023-05-05T09:01:54.204Z,3.45
2023-05-05T09:02:58.266Z,3.50
2023-05-05T09:04:00.236Z,3.58
2023-05-05T09:05:05.331Z,3.38
2023-05-05T09:06:10.183Z,3.08
2023-05-05T09:07:12.189Z,4.00
2023-05-05T09:08:15.159Z,4.05
2023-05-05T09:09:17.486Z,4.13
2023-05-05T09:10:20.609Z,3.55
2023-05-05T09:11:23.550Z,3.65
2023-05-05T09:12:25.627Z,3.95
2023-05-05T09:13:28.358Z,3.42
2023-05-05T09:14:30.041Z,3.50
2023-05-05T09:15:33.156Z,4.13
2023-05-05T09:16:35.955Z,3.13
2023-05-05T09:17:38.217Z,3.25
2023-05-05T09:18:42.617Z,3.60
2023-05-05T09:20:01.576Z,3.15
2023-05-05T09:21:21.873Z,3.30
2023-05-05T09:22:33.271Z,3.55
2023-05-05T09:23:36.066Z,3.53
2023-05-05T09:24:37.782Z,3.22
2023-05-05T09:25:41.219Z,3.60
2023-05-05T09:26:45.031Z,3.30
2023-05-05T09:27:48.210Z,3.05
2023-05-05T09:28:53.412Z,3.33
2023-05-05T09:29:56.330Z,3.40
2023-05-05T09:31:13.671Z,3.30
2023-05-05T09:32:16.542Z,2.47
2023-05-05T09:33:29.947Z,2.80
2023-05-05T09:34:33.961Z,3.15
2023-05-05T09:35:55.763Z,2.90
2023-05-05T09:36:58.875Z,2.53
2023-05-05T09:38:12.627Z,2.47
2023-05-05T09:39:14.829Z,2.45
2023-05-05T09:40:19.239Z,2.42
2023-05-05T09:41:36.730Z,2.95
2023-05-05T09:42:40.197Z,2.55
2023-05-05T09:43:50.269Z,3.00
2023-05-05T09:44:52.983Z,2.55
2023-05-05T09:46:07.358Z,2.53
2023-05-05T09:47:22.104Z,2.53
2023-05-05T09:48:33.326Z,1.85
2023-05-05T09:49:36.737Z,1.80
2023-05-05T09:50:45.706Z,1.50
2023-05-05T09:51:48.958Z,1.77
2023-05-05T09:53:00.660Z,1.30
2023-05-05T09:54:03.444Z,1.00
2023-05-05T09:55:07.054Z,0.93
2023-05-05T09:56:08.943Z,0.93
2023-05-05T09:57:26.724Z,0.70
2023-05-05T09:58:31.023Z,0.77
2023-05-05T09:59:32.819Z,0.90
2023-05-05T10:00:39.505Z,1.50
2023-05-05T10:01:43.466Z,1.30
2023-05-05T10:02:46.510Z,1.50
2023-05-05T10:03:50.933Z,1.30
2023-05-05T10:05:06.029Z,1.20
2023-05-05T10:06:08.826Z,1.75
2023-05-05T10:07:22.909Z,1.80
2023-05-05T10:08:28.736Z,1.77
2023-05-05T10:09:31.713Z,1.63
2023-05-05T10:10:34.430Z,1.77
2023-05-05T10:11:36.477Z,1.60
2023-05-05T10:12:39.923Z,1.48
2023-05-05T10:13:42.201Z,1.48
2023-05-05T10:14:45.070Z,1.73
2023-05-05T10:15:48.794Z,1.92
2023-05-05T10:16:52.597Z,1.90
2023-05-05T10:18:06.995Z,1.90
2023-05-05T10:19:14.205Z,2.28
2023-05-05T10:20:16.214Z,1.80
2023-05-05T10:21:21.694Z,1.80
2023-05-05T10:22:23.640Z,2.45
2023-05-05T10:23:31.979Z,1.80
2023-05-05T10:24:35.792Z,1.75
2023-05-05T10:25:42.144Z,1.73
2023-05-05T10:26:44.391Z,1.50
2023-05-05T10:27:48.128Z,1.98
2023-05-05T10:28:54.930Z,1.70
2023-05-05T10:30:03.761Z,2.00
2023-05-05T10:31:20.463Z,1.65
2023-05-05T10:33:41.961Z,1.52
2023-05-05T10:34:52.055Z,1.30
2023-05-05T10:35:56.429Z,1.50
2023-05-05T10:37:00.203Z,1.90
2023-05-05T10:38:03.506Z,1.85
2023-05-05T10:39:09.304Z,1.45
2023-05-05T10:40:12.398Z,1.75
2023-05-05T10:41:14.240Z,1.50
2023-05-05T10:42:17.010Z,1.73
2023-05-05T10:43:18.954Z,1.60
2023-05-05T10:44:22.278Z,1.77
2023-05-05T10:45:23.986Z,1.90
2023-05-05T10:46:28.116Z,1.70
2023-05-05T10:47:30.671Z,1.70
2023-05-05T10:48:37.322Z,2.08
2023-05-05T10:49:43.890Z,1.60
2023-05-05T10:50:51.125Z,1.90
2023-05-05T10:51:57.701Z,1.90
2023-05-05T10:53:08.464Z,2.08
2023-05-05T10:54:18.280Z,2.15
2023-05-05T10:55:28.554Z,1.63
2023-05-05T10:56:32.596Z,2.00
2023-05-05T10:57:38.193Z,1.85
2023-05-05T10:58:58.131Z,1.80
2023-05-05T11:00:02.243Z,1.70
2023-05-05T11:01:04.972Z,1.80
2023-05-05T11:02:20.075Z,1.70
2023-05-05T11:03:25.706Z,1.40
2023-05-05T11:04:27.588Z,1.80
2023-05-05T11:05:30.752Z,1.50
2023-05-05T11:06:32.810Z,1.50
2023-05-05T11:07:35.752Z,1.40
2023-05-05T11:08:38.483Z,1.63
2023-05-05T11:09:58.222Z,1.73
2023-05-05T11:11:01.383Z,1.30
2023-05-05T11:12:04.499Z,1.40
2023-05-05T11:13:21.174Z,1.48
2023-05-05T11:14:23.108Z,1.27
2023-05-05T11:15:41.552Z,1.20
2023-05-05T11:16:45.490Z,1.40
2023-05-05T11:17:48.839Z,1.27
2023-05-05T11:18:51.610Z,1.30
2023-05-05T11:19:53.486Z,1.23
2023-05-05T11:21:15.606Z,1.30
2023-05-05T11:22:18.523Z,0.80
2023-05-05T11:23:24.106Z,1.08
2023-05-05T11:24:30.122Z,0.95
2023-05-05T11:25:48.859Z,1.10
2023-05-05T11:26:52.632Z,1.08
2023-05-05T11:28:07.111Z,1.40
2023-05-05T11:29:09.812Z,1.25
2023-05-05T11:30:13.092Z,1.20
2023-05-05T11:31:20.039Z,1.17
2023-05-05T11:32:23.119Z,1.45
2023-05-05T11:33:25.764Z,1.30
2023-05-05T11:34:29.004Z,1.40
2023-05-05T11:35:54.532Z,1.10
2023-05-05T11:36:59.274Z,0.70
2023-05-05T11:38:03.717Z,0.82
2023-05-05T11:39:09.925Z,0.90
2023-05-05T11:40:20.917Z,0.80
2023-05-05T11:41:32.669Z,0.95
2023-05-05T11:42:35.624Z,0.63
2023-05-05T11:43:37.338Z,0.70
2023-05-05T11:44:40.207Z,0.73
2023-05-05T11:45:42.900Z,0.90
2023-05-05T11:47:14.318Z,0.60
2023-05-05T11:48:26.965Z,0.70
2023-05-05T11:49:30.337Z,0.55
2023-05-05T11:50:34.182Z,0.70
2023-05-05T11:51:35.915Z,0.50
2023-05-05T11:52:38.748Z,0.60
2023-05-05T11:53:42.910Z,0.63
2023-05-05T11:54:47.885Z,0.55
2023-05-05T11:55:50.616Z,0.68
2023-05-05T11:56:54.382Z,0.70
2023-05-05T11:57:57.092Z,0.50
2023-05-05T11:59:09.731Z,0.68
2023-05-05T12:00:13.736Z,0.70
2023-05-05T12:01:15.904Z,0.70
2023-05-05T12:02:18.929Z,0.57
2023-05-05T12:03:21.791Z,0.60
2023-05-05T12:04:23.756Z,0.70
2023-05-05T12:05:26.587Z,0.75
2023-05-05T12:06:32.379Z,0.57
2023-05-05T12:07:35.046Z,0.65
2023-05-05T12:08:37.240Z,0.50
2023-05-05T12:09:43.890Z,0.73
2023-05-05T12:10:46.592Z,0.70
2023-05-05T12:11:48.923Z,0.80
2023-05-05T12:12:56.027Z,0.88
2023-05-05T12:14:08.466Z,0.70
2023-05-05T12:15:11.437Z,0.60
2023-05-05T12:16:14.284Z,0.90
2023-05-05T12:17:17.030Z,0.80
2023-05-05T12:18:19.081Z,0.80
2023-05-05T12:19:21.796Z,0.70
2023-05-05T12:20:31.159Z,0.77
2023-05-05T12:21:33.160Z,1.02
2023-05-05T12:22:35.902Z,0.50
2023-05-05T12:23:38.268Z,0.70
2023-05-05T12:24:40.971Z,0.65
2023-05-05T12:25:44.263Z,0.70
2023-05-05T12:26:45.933Z,0.77
2023-05-05T12:27:54.216Z,0.70
2023-05-05T12:28:55.983Z,0.55
2023-05-05T12:30:12.553Z,0.52
2023-05-05T12:31:15.934Z,0.73
2023-05-05T12:32:22.651Z,0.75
2023-05-05T12:33:25.468Z,0.90
2023-05-05T12:34:27.385Z,0.68
2023-05-05T12:35:30.667Z,0.80
2023-05-05T12:36:33.680Z,0.70
2023-05-05T12:37:36.780Z,0.80
2023-05-05T12:38:38.806Z,0.70
2023-05-05T12:39:41.515Z,0.60
2023-05-05T12:40:46.213Z,0.60
2023-05-05T12:41:48.024Z,0.60
2023-05-05T12:42:51.967Z,0.63
2023-05-05T12:43:59.514Z,0.70
2023-05-05T12:45:01.626Z,0.57
2023-05-05T12:46:06.861Z,0.70
2023-05-05T12:47:08.681Z,0.55
2023-05-05T12:48:23.691Z,0.80
2023-05-05T12:49:26.447Z,0.60
2023-05-05T12:50:31.565Z,0.65
2023-05-05T12:51:35.933Z,0.88
2023-05-05T12:52:42.399Z,0.60
2023-05-05T12:53:45.787Z,0.52
2023-05-05T12:54:55.588Z,0.65
2023-05-05T12:55:57.371Z,0.60
2023-05-05T12:57:00.071Z,0.70
2023-05-05T12:58:02.137Z,0.60
2023-05-05T12:59:07.459Z,0.80
2023-05-05T13:00:15.356Z,0.73
2023-05-05T13:01:17.097Z,0.60
2023-05-05T13:02:20.814Z,0.77
2023-05-05T13:03:22.704Z,0.60
2023-05-05T13:04:26.191Z,0.70
2023-05-05T13:05:31.954Z,0.70
2023-05-05T13:06:34.988Z,0.70
2023-05-05T13:07:38.685Z,0.60
2023-05-05T13:08:43.351Z,0.77
2023-05-05T13:09:46.258Z,0.70
2023-05-05T13:10:58.074Z,0.85
2023-05-05T13:12:02.815Z,0.60
2023-05-05T13:13:04.851Z,0.70
2023-05-05T13:14:09.376Z,0.50
2023-05-05T13:15:12.277Z,0.40
2023-05-05T13:16:15.112Z,0.50
2023-05-05T13:17:18.182Z,0.43
2023-05-05T13:18:19.891Z,0.40
2023-05-05T13:19:23.700Z,0.60
2023-05-05T13:20:26.420Z,0.30
2023-05-05T13:21:28.209Z,0.60
2023-05-05T13:22:30.930Z,0.60
2023-05-05T13:23:32.638Z,0.50
2023-05-05T13:24:49.876Z,0.40
2023-05-05T13:25:54.718Z,0.50
2023-05-05T13:26:57.122Z,0.57
2023-05-05T13:27:59.819Z,0.57
2023-05-05T13:29:01.657Z,0.30
2023-05-05T13:30:06.647Z,0.52
2023-05-05T13:31:08.563Z,0.50
2023-05-05T13:32:11.443Z,0.50
2023-05-05T13:33:13.134Z,0.40
2023-05-05T13:34:15.837Z,0.50
2023-05-05T13:35:18.674Z,0.52
2023-05-05T13:36:20.484Z,0.38
2023-05-05T13:37:23.472Z,0.40
2023-05-05T13:38:25.182Z,0.45
2023-05-05T13:39:27.861Z,0.50
2023-05-05T13:40:29.853Z,0.40
2023-05-05T13:41:32.614Z,0.60
2023-05-05T13:42:35.386Z,0.50
2023-05-05T13:43:37.101Z,0.60
2023-05-05T13:44:39.906Z,0.40
2023-05-05T13:46:51.223Z,0.50
2023-05-05T13:47:54.193Z,0.50
2023-05-05T13:48:56.775Z,0.40
2023-05-05T13:49:59.723Z,0.60
2023-05-05T13:51:03.358Z,0.30
2023-05-05T13:52:06.303Z,0.50
2023-05-05T13:53:08.494Z,0.38
2023-05-05T13:54:11.237Z,0.50
2023-05-05T13:55:12.938Z,0.28
2023-05-05T13:56:15.735Z,0.40
2023-05-05T13:57:18.981Z,0.40
2023-05-05T13:58:20.651Z,0.40
2023-05-05T13:59:23.332Z,0.43
2023-05-05T14:00:25.165Z,0.30
2023-05-05T14:01:28.100Z,0.40
2023-05-05T14:02:31.604Z,0.52
2023-05-05T14:03:34.325Z,0.70
2023-05-05T14:04:36.338Z,0.30
2023-05-05T14:05:42.460Z,0.40
2023-05-05T14:06:45.160Z,0.60
2023-05-05T14:07:47.222Z,0.47
2023-05-05T14:08:50.032Z,0.52
2023-05-05T14:09:51.743Z,0.40
2023-05-05T14:10:54.425Z,0.47
2023-05-05T14:11:57.588Z,0.50
2023-05-05T14:12:59.342Z,0.43
2023-05-05T14:14:02.054Z,0.57
2023-05-05T14:15:04.692Z,0.40
2023-05-05T14:16:07.676Z,0.50
2023-05-05T14:17:10.649Z,0.60